sensor_id;sensor_type;location;lat;lon;timestamp;temperature;humidity
63260;DHT22;49390;51.380;0.098;2023-02-24T00:02:02;3.50;99.90
63260;DHT22;49390;51.380;0.098;2023-02-24T00:04:37;3.40;99.90
63260;DHT22;49390;51.380;0.098;2023-02-24T00:07:07;3.40;99.90
63260;DHT22;49390;51.380;0.098;2023-02-24T00:09:37;3.40;99.90
63260;DHT22;49390;51.380;0.098;2023-02-24T00:12:08;3.30;99.90
63260;DHT22;49390;51.380;0.098;2023-02-24T00:14:38;3.30;99.90
63260;DHT22;49390;51.380;0.098;2023-02-24T00:17:07;3.30;99.90
63260;DHT22;49390;51.380;0.098;2023-02-24T00:19:36;3.20;99.90
63260;DHT22;49390;51.380;0.098;2023-02-24T00:22:06;3.10;99.90
63260;DHT22;49390;51.380;0.098;2023-02-24T00:24:34;3.10;99.90
63260;DHT22;49390;51.380;0.098;2023-02-24T00:27:05;3.00;99.90
63260;DHT22;49390;51.380;0.098;2023-02-24T00:29:39;3.00;99.90
63260;DHT22;49390;51.380;0.098;2023-02-24T00:32:09;3.00;99.90
63260;DHT22;49390;51.380;0.098;2023-02-24T00:34:43;3.00;99.90
63260;DHT22;49390;51.380;0.098;2023-02-24T00:37:11;3.00;99.90
63260;DHT22;49390;51.380;0.098;2023-02-24T00:39:43;3.00;99.90
63260;DHT22;49390;51.380;0.098;2023-02-24T00:42:12;2.90;99.90
63260;DHT22;49390;51.380;0.098;2023-02-24T00:44:43;2.90;99.90
63260;DHT22;49390;51.380;0.098;2023-02-24T00:47:12;2.90;99.90
63260;DHT22;49390;51.380;0.098;2023-02-24T00:49:41;2.80;99.90
63260;DHT22;49390;51.380;0.098;2023-02-24T00:52:16;2.90;99.90
63260;DHT22;49390;51.380;0.098;2023-02-24T00:54:47;2.80;99.90
63260;DHT22;49390;51.380;0.098;2023-02-24T00:57:16;2.80;99.90
63260;DHT22;49390;51.380;0.098;2023-02-24T00:59:45;2.80;99.90
63260;DHT22;49390;51.380;0.098;2023-02-24T01:02:14;2.80;99.90
63260;DHT22;49390;51.380;0.098;2023-02-24T01:04:45;2.80;99.90
63260;DHT22;49390;51.380;0.098;2023-02-24T01:07:14;2.80;99.90
63260;DHT22;49390;51.380;0.098;2023-02-24T01:09:44;2.80;99.90
63260;DHT22;49390;51.380;0.098;2023-02-24T01:12:13;2.70;99.90
63260;DHT22;49390;51.380;0.098;2023-02-24T01:15:10;2.70;99.90
63260;DHT22;49390;51.380;0.098;2023-02-24T01:17:39;2.70;99.90
63260;DHT22;49390;51.380;0.098;2023-02-24T01:20:12;2.70;99.90
63260;DHT22;49390;51.380;0.098;2023-02-24T01:22:47;2.70;99.90
63260;DHT22;49390;51.380;0.098;2023-02-24T01:25:16;2.70;99.90
63260;DHT22;49390;51.380;0.098;2023-02-24T01:27:47;2.70;99.90
63260;DHT22;49390;51.380;0.098;2023-02-24T01:30:15;2.70;99.90
63260;DHT22;49390;51.380;0.098;2023-02-24T01:32:45;2.70;99.90
63260;DHT22;49390;51.380;0.098;2023-02-24T01:35:14;2.60;99.90
63260;DHT22;49390;51.380;0.098;2023-02-24T01:37:42;2.60;99.90
63260;DHT22;49390;51.380;0.098;2023-02-24T01:40:13;2.60;99.90
63260;DHT22;49390;51.380;0.098;2023-02-24T01:42:48;2.60;99.90
63260;DHT22;49390;51.380;0.098;2023-02-24T01:45:22;2.60;99.90
63260;DHT22;49390;51.380;0.098;2023-02-24T01:47:53;2.50;99.90
63260;DHT22;49390;51.380;0.098;2023-02-24T01:50:24;2.60;99.90
63260;DHT22;49390;51.380;0.098;2023-02-24T01:52:57;2.50;99.90
63260;DHT22;49390;51.380;0.098;2023-02-24T01:55:40;2.50;99.90
63260;DHT22;49390;51.380;0.098;2023-02-24T01:58:22;2.40;99.90
63260;DHT22;49390;51.380;0.098;2023-02-24T02:00:54;2.40;99.90
63260;DHT22;49390;51.380;0.098;2023-02-24T02:03:31;2.40;99.90
63260;DHT22;49390;51.380;0.098;2023-02-24T02:06:01;2.40;99.90
63260;DHT22;49390;51.380;0.098;2023-02-24T02:08:30;2.30;99.90
63260;DHT22;49390;51.380;0.098;2023-02-24T02:11:08;2.30;99.90
63260;DHT22;49390;51.380;0.098;2023-02-24T02:13:42;2.30;99.90
63260;DHT22;49390;51.380;0.098;2023-02-24T02:18:51;2.30;99.90
63260;DHT22;49390;51.380;0.098;2023-02-24T02:24:38;2.30;99.90
63260;DHT22;49390;51.380;0.098;2023-02-24T02:30:22;2.30;99.90
63260;DHT22;49390;51.380;0.098;2023-02-24T02:36:16;2.30;99.90
63260;DHT22;49390;51.380;0.098;2023-02-24T02:39:05;2.30;99.90
63260;DHT22;49390;51.380;0.098;2023-02-24T02:42:00;2.30;99.90
63260;DHT22;49390;51.380;0.098;2023-02-24T02:44:52;2.30;99.90
63260;DHT22;49390;51.380;0.098;2023-02-24T02:47:33;2.30;99.90
63260;DHT22;49390;51.380;0.098;2023-02-24T02:50:17;2.30;99.90
63260;DHT22;49390;51.380;0.098;2023-02-24T02:53:10;2.30;99.90
63260;DHT22;49390;51.380;0.098;2023-02-24T02:55:53;2.30;99.90
63260;DHT22;49390;51.380;0.098;2023-02-24T02:58:27;2.30;99.90
63260;DHT22;49390;51.380;0.098;2023-02-24T03:00:59;2.30;99.90
63260;DHT22;49390;51.380;0.098;2023-02-24T03:03:39;2.30;99.90
63260;DHT22;49390;51.380;0.098;2023-02-24T03:06:14;2.30;99.90
63260;DHT22;49390;51.380;0.098;2023-02-24T03:09:08;2.30;99.90
63260;DHT22;49390;51.380;0.098;2023-02-24T03:11:45;2.30;99.90
63260;DHT22;49390;51.380;0.098;2023-02-24T03:14:23;2.30;99.90
63260;DHT22;49390;51.380;0.098;2023-02-24T03:16:54;2.30;99.90
63260;DHT22;49390;51.380;0.098;2023-02-24T03:19:28;2.30;99.90
63260;DHT22;49390;51.380;0.098;2023-02-24T03:25:26;2.30;99.90
63260;DHT22;49390;51.380;0.098;2023-02-24T03:28:05;2.30;99.90
63260;DHT22;49390;51.380;0.098;2023-02-24T03:31:00;2.30;99.90
63260;DHT22;49390;51.380;0.098;2023-02-24T03:33:35;2.30;99.90
63260;DHT22;49390;51.380;0.098;2023-02-24T03:36:04;2.30;99.90
63260;DHT22;49390;51.380;0.098;2023-02-24T03:38:34;2.30;99.90
63260;DHT22;49390;51.380;0.098;2023-02-24T03:41:05;2.30;99.90
63260;DHT22;49390;51.380;0.098;2023-02-24T03:43:43;2.20;99.90
63260;DHT22;49390;51.380;0.098;2023-02-24T03:46:15;2.20;99.90
63260;DHT22;49390;51.380;0.098;2023-02-24T03:48:53;2.20;99.90
63260;DHT22;49390;51.380;0.098;2023-02-24T03:51:22;2.10;99.90
63260;DHT22;49390;51.380;0.098;2023-02-24T04:00:13;2.20;99.90
63260;DHT22;49390;51.380;0.098;2023-02-24T04:05:41;2.30;99.90
63260;DHT22;49390;51.380;0.098;2023-02-24T04:08:16;2.30;99.90
63260;DHT22;49390;51.380;0.098;2023-02-24T04:13:40;2.20;99.90
63260;DHT22;49390;51.380;0.098;2023-02-24T04:16:27;2.30;99.90
63260;DHT22;49390;51.380;0.098;2023-02-24T04:18:59;2.20;99.90
63260;DHT22;49390;51.380;0.098;2023-02-24T04:21:37;2.20;99.90
63260;DHT22;49390;51.380;0.098;2023-02-24T04:24:07;2.20;99.90
63260;DHT22;49390;51.380;0.098;2023-02-24T04:26:44;2.20;99.90
63260;DHT22;49390;51.380;0.098;2023-02-24T04:29:18;2.20;99.90
63260;DHT22;49390;51.380;0.098;2023-02-24T04:31:53;2.20;99.90
63260;DHT22;49390;51.380;0.098;2023-02-24T04:34:23;2.20;99.90
63260;DHT22;49390;51.380;0.098;2023-02-24T04:36:51;2.20;99.90
63260;DHT22;49390;51.380;0.098;2023-02-24T04:39:20;2.20;99.90
63260;DHT22;49390;51.380;0.098;2023-02-24T04:41:53;2.20;99.90
63260;DHT22;49390;51.380;0.098;2023-02-24T04:44:21;2.20;99.90
63260;DHT22;49390;51.380;0.098;2023-02-24T04:46:50;2.20;99.90
63260;DHT22;49390;51.380;0.098;2023-02-24T04:49:18;2.30;99.90
63260;DHT22;49390;51.380;0.098;2023-02-24T04:51:46;2.40;99.90
63260;DHT22;49390;51.380;0.098;2023-02-24T04:54:16;2.40;99.90
63260;DHT22;49390;51.380;0.098;2023-02-24T04:56:45;2.50;99.90
63260;DHT22;49390;51.380;0.098;2023-02-24T04:59:15;2.50;99.90
63260;DHT22;49390;51.380;0.098;2023-02-24T05:01:45;2.60;99.90
63260;DHT22;49390;51.380;0.098;2023-02-24T05:04:13;2.60;99.90
63260;DHT22;49390;51.380;0.098;2023-02-24T05:06:41;2.60;99.90
63260;DHT22;49390;51.380;0.098;2023-02-24T05:09:15;2.60;99.90
63260;DHT22;49390;51.380;0.098;2023-02-24T05:11:46;2.70;99.90
63260;DHT22;49390;51.380;0.098;2023-02-24T05:14:19;2.80;99.90
63260;DHT22;49390;51.380;0.098;2023-02-24T05:16:51;2.80;99.90
63260;DHT22;49390;51.380;0.098;2023-02-24T05:19:20;2.90;99.90
63260;DHT22;49390;51.380;0.098;2023-02-24T05:22:06;2.90;99.90
63260;DHT22;49390;51.380;0.098;2023-02-24T05:24:37;2.90;99.90
63260;DHT22;49390;51.380;0.098;2023-02-24T05:27:08;2.90;99.90
63260;DHT22;49390;51.380;0.098;2023-02-24T05:29:36;3.00;99.90
63260;DHT22;49390;51.380;0.098;2023-02-24T05:32:04;3.00;99.90
63260;DHT22;49390;51.380;0.098;2023-02-24T05:34:33;3.10;99.90
63260;DHT22;49390;51.380;0.098;2023-02-24T05:37:01;3.10;99.90
63260;DHT22;49390;51.380;0.098;2023-02-24T05:39:36;3.20;99.90
63260;DHT22;49390;51.380;0.098;2023-02-24T05:42:05;3.20;99.90
63260;DHT22;49390;51.380;0.098;2023-02-24T05:44:33;3.30;99.90
63260;DHT22;49390;51.380;0.098;2023-02-24T05:47:02;3.30;99.90
63260;DHT22;49390;51.380;0.098;2023-02-24T05:49:33;3.30;99.90
63260;DHT22;49390;51.380;0.098;2023-02-24T05:52:06;3.40;99.90
63260;DHT22;49390;51.380;0.098;2023-02-24T05:54:40;3.40;99.90
63260;DHT22;49390;51.380;0.098;2023-02-24T05:57:10;3.40;99.90
63260;DHT22;49390;51.380;0.098;2023-02-24T05:59:40;3.50;99.90
63260;DHT22;49390;51.380;0.098;2023-02-24T06:02:14;3.50;99.90
63260;DHT22;49390;51.380;0.098;2023-02-24T06:04:44;3.50;99.90
63260;DHT22;49390;51.380;0.098;2023-02-24T06:07:26;3.60;99.90
63260;DHT22;49390;51.380;0.098;2023-02-24T06:09:56;3.60;99.90
63260;DHT22;49390;51.380;0.098;2023-02-24T06:12:27;3.60;99.90
63260;DHT22;49390;51.380;0.098;2023-02-24T06:14:57;3.60;99.90
63260;DHT22;49390;51.380;0.098;2023-02-24T06:17:25;3.60;99.90
63260;DHT22;49390;51.380;0.098;2023-02-24T06:19:54;3.70;99.90
63260;DHT22;49390;51.380;0.098;2023-02-24T06:22:24;3.70;99.90
63260;DHT22;49390;51.380;0.098;2023-02-24T06:24:53;3.70;99.90
63260;DHT22;49390;51.380;0.098;2023-02-24T06:27:21;3.70;99.90
63260;DHT22;49390;51.380;0.098;2023-02-24T06:29:53;3.70;99.90
63260;DHT22;49390;51.380;0.098;2023-02-24T06:32:23;3.70;99.90
63260;DHT22;49390;51.380;0.098;2023-02-24T06:34:53;3.70;99.90
63260;DHT22;49390;51.380;0.098;2023-02-24T06:37:21;3.80;99.90
63260;DHT22;49390;51.380;0.098;2023-02-24T06:39:51;3.70;99.90
63260;DHT22;49390;51.380;0.098;2023-02-24T06:42:19;3.70;99.90
63260;DHT22;49390;51.380;0.098;2023-02-24T06:44:47;3.70;99.90
63260;DHT22;49390;51.380;0.098;2023-02-24T06:47:19;3.70;99.90
63260;DHT22;49390;51.380;0.098;2023-02-24T06:49:49;3.70;99.90
63260;DHT22;49390;51.380;0.098;2023-02-24T06:52:17;3.70;99.90
63260;DHT22;49390;51.380;0.098;2023-02-24T06:54:48;3.70;99.90
63260;DHT22;49390;51.380;0.098;2023-02-24T06:57:19;3.70;99.90
63260;DHT22;49390;51.380;0.098;2023-02-24T06:59:50;3.70;99.90
63260;DHT22;49390;51.380;0.098;2023-02-24T07:02:18;3.80;99.90
63260;DHT22;49390;51.380;0.098;2023-02-24T07:04:47;3.80;99.90
63260;DHT22;49390;51.380;0.098;2023-02-24T07:07:14;3.80;99.90
63260;DHT22;49390;51.380;0.098;2023-02-24T07:09:44;3.80;99.90
63260;DHT22;49390;51.380;0.098;2023-02-24T07:12:12;3.80;99.90
63260;DHT22;49390;51.380;0.098;2023-02-24T07:14:42;3.80;99.90
63260;DHT22;49390;51.380;0.098;2023-02-24T07:17:10;3.80;99.90
63260;DHT22;49390;51.380;0.098;2023-02-24T07:19:41;3.90;99.90
63260;DHT22;49390;51.380;0.098;2023-02-24T07:22:10;3.90;99.90
63260;DHT22;49390;51.380;0.098;2023-02-24T07:24:41;4.00;99.90
63260;DHT22;49390;51.380;0.098;2023-02-24T07:27:15;4.00;99.90
63260;DHT22;49390;51.380;0.098;2023-02-24T07:29:50;4.00;99.90
63260;DHT22;49390;51.380;0.098;2023-02-24T07:32:20;3.90;99.90
63260;DHT22;49390;51.380;0.098;2023-02-24T07:34:49;4.00;99.90
63260;DHT22;49390;51.380;0.098;2023-02-24T07:37:17;3.90;99.90
63260;DHT22;49390;51.380;0.098;2023-02-24T07:39:47;4.00;99.90
63260;DHT22;49390;51.380;0.098;2023-02-24T07:42:15;4.00;99.90
63260;DHT22;49390;51.380;0.098;2023-02-24T07:44:44;4.00;99.90
63260;DHT22;49390;51.380;0.098;2023-02-24T07:47:13;4.00;99.90
63260;DHT22;49390;51.380;0.098;2023-02-24T07:49:43;4.00;99.90
63260;DHT22;49390;51.380;0.098;2023-02-24T07:52:12;4.00;99.90
63260;DHT22;49390;51.380;0.098;2023-02-24T07:54:40;4.00;99.90
63260;DHT22;49390;51.380;0.098;2023-02-24T07:57:08;4.00;99.90
63260;DHT22;49390;51.380;0.098;2023-02-24T07:59:41;4.00;99.90
63260;DHT22;49390;51.380;0.098;2023-02-24T08:02:11;4.10;99.90
63260;DHT22;49390;51.380;0.098;2023-02-24T08:04:41;4.10;99.90
63260;DHT22;49390;51.380;0.098;2023-02-24T08:07:18;4.20;99.90
63260;DHT22;49390;51.380;0.098;2023-02-24T08:09:55;4.30;99.90
63260;DHT22;49390;51.380;0.098;2023-02-24T08:12:53;4.30;99.90
63260;DHT22;49390;51.380;0.098;2023-02-24T08:15:23;4.40;99.90
63260;DHT22;49390;51.380;0.098;2023-02-24T08:17:56;4.40;99.90
63260;DHT22;49390;51.380;0.098;2023-02-24T08:20:29;4.50;99.90
63260;DHT22;49390;51.380;0.098;2023-02-24T08:23:02;4.50;99.90
63260;DHT22;49390;51.380;0.098;2023-02-24T08:25:33;4.60;99.90
63260;DHT22;49390;51.380;0.098;2023-02-24T08:28:06;4.60;99.90
63260;DHT22;49390;51.380;0.098;2023-02-24T08:30:39;4.60;99.90
63260;DHT22;49390;51.380;0.098;2023-02-24T08:33:20;4.70;99.90
63260;DHT22;49390;51.380;0.098;2023-02-24T08:35:53;4.80;99.90
63260;DHT22;49390;51.380;0.098;2023-02-24T08:38:31;4.80;99.90
63260;DHT22;49390;51.380;0.098;2023-02-24T08:41:12;4.90;99.90
63260;DHT22;49390;51.380;0.098;2023-02-24T08:43:46;4.90;99.90
63260;DHT22;49390;51.380;0.098;2023-02-24T08:46:18;5.00;99.90
63260;DHT22;49390;51.380;0.098;2023-02-24T08:48:55;5.00;99.90
63260;DHT22;49390;51.380;0.098;2023-02-24T08:51:31;5.10;99.90
63260;DHT22;49390;51.380;0.098;2023-02-24T08:54:06;5.20;99.90
63260;DHT22;49390;51.380;0.098;2023-02-24T08:56:38;5.20;99.90
63260;DHT22;49390;51.380;0.098;2023-02-24T08:59:26;5.20;99.90
63260;DHT22;49390;51.380;0.098;2023-02-24T09:02:17;5.30;99.90
63260;DHT22;49390;51.380;0.098;2023-02-24T09:07:27;5.40;99.90
63260;DHT22;49390;51.380;0.098;2023-02-24T09:09:58;5.40;99.90
63260;DHT22;49390;51.380;0.098;2023-02-24T09:12:27;5.50;99.90
63260;DHT22;49390;51.380;0.098;2023-02-24T09:14:58;5.60;99.90
63260;DHT22;49390;51.380;0.098;2023-02-24T09:17:30;5.60;99.90
63260;DHT22;49390;51.380;0.098;2023-02-24T09:20:25;5.70;99.90
63260;DHT22;49390;51.380;0.098;2023-02-24T09:23:28;5.80;99.90
63260;DHT22;49390;51.380;0.098;2023-02-24T09:25:56;5.90;99.90
63260;DHT22;49390;51.380;0.098;2023-02-24T09:28:26;5.90;99.90
63260;DHT22;49390;51.380;0.098;2023-02-24T09:30:58;6.00;99.90
63260;DHT22;49390;51.380;0.098;2023-02-24T09:36:14;6.10;99.90
63260;DHT22;49390;51.380;0.098;2023-02-24T09:38:59;6.20;99.90
63260;DHT22;49390;51.380;0.098;2023-02-24T09:44:39;6.40;99.90
63260;DHT22;49390;51.380;0.098;2023-02-24T09:53:09;6.70;99.90
63260;DHT22;49390;51.380;0.098;2023-02-24T09:55:56;6.80;99.90
63260;DHT22;49390;51.380;0.098;2023-02-24T10:06:50;7.10;99.90
63260;DHT22;49390;51.380;0.098;2023-02-24T10:11:56;7.30;99.90
63260;DHT22;49390;51.380;0.098;2023-02-24T10:17:21;7.40;99.90
63260;DHT22;49390;51.380;0.098;2023-02-24T10:19:59;7.50;99.90
63260;DHT22;49390;51.380;0.098;2023-02-24T10:22:50;7.60;99.90
63260;DHT22;49390;51.380;0.098;2023-02-24T10:25:53;7.70;99.90
63260;DHT22;49390;51.380;0.098;2023-02-24T10:31:12;7.80;99.90
63260;DHT22;49390;51.380;0.098;2023-02-24T10:34:07;7.80;99.90
63260;DHT22;49390;51.380;0.098;2023-02-24T10:36:36;7.80;99.90
63260;DHT22;49390;51.380;0.098;2023-02-24T10:39:14;7.80;99.90
63260;DHT22;49390;51.380;0.098;2023-02-24T10:41:55;7.80;99.90
63260;DHT22;49390;51.380;0.098;2023-02-24T10:44:29;7.90;99.90
63260;DHT22;49390;51.380;0.098;2023-02-24T10:47:09;7.90;99.90
63260;DHT22;49390;51.380;0.098;2023-02-24T10:49:43;7.90;99.90
63260;DHT22;49390;51.380;0.098;2023-02-24T10:52:39;7.90;99.90
63260;DHT22;49390;51.380;0.098;2023-02-24T10:55:35;8.00;99.90
63260;DHT22;49390;51.380;0.098;2023-02-24T10:58:27;8.10;99.90
63260;DHT22;49390;51.380;0.098;2023-02-24T11:01:26;8.10;99.90
63260;DHT22;49390;51.380;0.098;2023-02-24T11:04:17;8.10;99.90
63260;DHT22;49390;51.380;0.098;2023-02-24T11:07:14;8.10;99.90
63260;DHT22;49390;51.380;0.098;2023-02-24T11:10:21;8.20;99.90
63260;DHT22;49390;51.380;0.098;2023-02-24T11:12:54;8.20;99.90
63260;DHT22;49390;51.380;0.098;2023-02-24T11:15:47;8.20;99.90
63260;DHT22;49390;51.380;0.098;2023-02-24T11:18:35;8.30;99.90
63260;DHT22;49390;51.380;0.098;2023-02-24T11:21:05;8.30;99.90
63260;DHT22;49390;51.380;0.098;2023-02-24T11:23:38;8.30;99.90
63260;DHT22;49390;51.380;0.098;2023-02-24T11:42:20;8.30;99.90
63260;DHT22;49390;51.380;0.098;2023-02-24T11:47:40;8.40;99.90
63260;DHT22;49390;51.380;0.098;2023-02-24T11:52:59;8.50;99.90
63260;DHT22;49390;51.380;0.098;2023-02-24T11:55:42;8.50;99.90
63260;DHT22;49390;51.380;0.098;2023-02-24T11:58:16;8.50;99.90
63260;DHT22;49390;51.380;0.098;2023-02-24T12:00:55;8.60;99.90
63260;DHT22;49390;51.380;0.098;2023-02-24T12:03:50;8.60;99.90
63260;DHT22;49390;51.380;0.098;2023-02-24T12:06:34;8.70;99.90
63260;DHT22;49390;51.380;0.098;2023-02-24T12:09:12;8.80;99.90
63260;DHT22;49390;51.380;0.098;2023-02-24T12:17:18;8.80;99.90
63260;DHT22;49390;51.380;0.098;2023-02-24T12:20:04;8.80;99.90
63260;DHT22;49390;51.380;0.098;2023-02-24T12:23:31;8.70;99.90
63260;DHT22;49390;51.380;0.098;2023-02-24T12:34:41;8.90;99.90
63260;DHT22;49390;51.380;0.098;2023-02-24T12:40:34;9.10;99.90
63260;DHT22;49390;51.380;0.098;2023-02-24T12:43:31;9.30;99.90
63260;DHT22;49390;51.380;0.098;2023-02-24T12:46:52;9.40;99.90
63260;DHT22;49390;51.380;0.098;2023-02-24T12:57:30;9.80;99.90
63260;DHT22;49390;51.380;0.098;2023-02-24T13:00:16;10.10;99.90
63260;DHT22;49390;51.380;0.098;2023-02-24T13:05:45;10.50;99.90
63260;DHT22;49390;51.380;0.098;2023-02-24T13:08:20;10.60;99.90
63260;DHT22;49390;51.380;0.098;2023-02-24T13:11:17;10.70;99.90
63260;DHT22;49390;51.380;0.098;2023-02-24T13:14:15;10.80;99.90
63260;DHT22;49390;51.380;0.098;2023-02-24T13:16:47;10.80;99.90
63260;DHT22;49390;51.380;0.098;2023-02-24T13:19:27;10.80;99.90
63260;DHT22;49390;51.380;0.098;2023-02-24T13:24:33;10.60;99.90
63260;DHT22;49390;51.380;0.098;2023-02-24T13:27:27;10.50;99.90
63260;DHT22;49390;51.380;0.098;2023-02-24T13:29:58;10.50;99.90
63260;DHT22;49390;51.380;0.098;2023-02-24T13:32:34;10.40;99.90
63260;DHT22;49390;51.380;0.098;2023-02-24T13:39:50;10.20;99.90
63260;DHT22;49390;51.380;0.098;2023-02-24T13:45:22;10.20;99.90
63260;DHT22;49390;51.380;0.098;2023-02-24T14:01:21;10.00;99.90
63260;DHT22;49390;51.380;0.098;2023-02-24T14:06:32;10.00;99.90
63260;DHT22;49390;51.380;0.098;2023-02-24T14:09:01;10.00;99.90
63260;DHT22;49390;51.380;0.098;2023-02-24T14:11:34;10.00;99.90
63260;DHT22;49390;51.380;0.098;2023-02-24T14:14:02;10.10;99.90
63260;DHT22;49390;51.380;0.098;2023-02-24T14:16:36;10.10;99.90
63260;DHT22;49390;51.380;0.098;2023-02-24T14:19:12;10.20;99.90
63260;DHT22;49390;51.380;0.098;2023-02-24T14:21:52;10.20;99.90
63260;DHT22;49390;51.380;0.098;2023-02-24T14:24:21;10.20;99.90
63260;DHT22;49390;51.380;0.098;2023-02-24T14:26:56;10.20;99.90
63260;DHT22;49390;51.380;0.098;2023-02-24T14:29:30;10.30;99.90
63260;DHT22;49390;51.380;0.098;2023-02-24T14:32:21;10.40;99.90
63260;DHT22;49390;51.380;0.098;2023-02-24T14:34:51;10.40;99.90
63260;DHT22;49390;51.380;0.098;2023-02-24T14:37:30;10.40;99.90
63260;DHT22;49390;51.380;0.098;2023-02-24T14:39:59;10.40;99.90
63260;DHT22;49390;51.380;0.098;2023-02-24T14:42:27;10.40;99.90
63260;DHT22;49390;51.380;0.098;2023-02-24T14:44:57;10.40;99.90
63260;DHT22;49390;51.380;0.098;2023-02-24T14:47:27;10.40;99.90
63260;DHT22;49390;51.380;0.098;2023-02-24T14:55:28;10.30;99.90
63260;DHT22;49390;51.380;0.098;2023-02-24T14:58:20;10.30;99.90
63260;DHT22;49390;51.380;0.098;2023-02-24T15:00:57;10.30;99.90
63260;DHT22;49390;51.380;0.098;2023-02-24T15:03:31;10.40;99.90
63260;DHT22;49390;51.380;0.098;2023-02-24T15:06:06;10.50;99.90
63260;DHT22;49390;51.380;0.098;2023-02-24T15:08:40;10.50;99.90
63260;DHT22;49390;51.380;0.098;2023-02-24T15:13:52;10.80;99.90
63260;DHT22;49390;51.380;0.098;2023-02-24T15:16:28;10.90;96.70
63260;DHT22;49390;51.380;0.098;2023-02-24T15:18:59;11.00;94.40
63260;DHT22;49390;51.380;0.098;2023-02-24T15:24:02;10.90;91.20
63260;DHT22;49390;51.380;0.098;2023-02-24T15:26:33;10.80;91.10
63260;DHT22;49390;51.380;0.098;2023-02-24T15:29:12;10.80;91.20
63260;DHT22;49390;51.380;0.098;2023-02-24T15:31:46;10.60;90.40
63260;DHT22;49390;51.380;0.098;2023-02-24T15:34:26;10.50;90.20
63260;DHT22;49390;51.380;0.098;2023-02-24T15:37:00;10.40;90.10
63260;DHT22;49390;51.380;0.098;2023-02-24T15:39:31;10.40;90.40
63260;DHT22;49390;51.380;0.098;2023-02-24T15:42:29;10.30;90.60
63260;DHT22;49390;51.380;0.098;2023-02-24T15:47:28;10.30;89.70
63260;DHT22;49390;51.380;0.098;2023-02-24T15:49:57;10.30;89.50
63260;DHT22;49390;51.380;0.098;2023-02-24T15:52:27;10.30;87.90
63260;DHT22;49390;51.380;0.098;2023-02-24T15:54:55;10.40;88.30
63260;DHT22;49390;51.380;0.098;2023-02-24T15:57:28;10.40;87.40
63260;DHT22;49390;51.380;0.098;2023-02-24T15:59:56;10.40;87.00
63260;DHT22;49390;51.380;0.098;2023-02-24T16:02:26;10.40;84.50
63260;DHT22;49390;51.380;0.098;2023-02-24T16:04:54;10.40;85.40
63260;DHT22;49390;51.380;0.098;2023-02-24T16:07:29;10.40;85.10
63260;DHT22;49390;51.380;0.098;2023-02-24T16:09:59;10.40;84.10
63260;DHT22;49390;51.380;0.098;2023-02-24T16:12:32;10.40;83.10
63260;DHT22;49390;51.380;0.098;2023-02-24T16:15:03;10.40;83.30
63260;DHT22;49390;51.380;0.098;2023-02-24T16:22:31;10.40;81.40
63260;DHT22;49390;51.380;0.098;2023-02-24T16:25:00;10.30;82.40
63260;DHT22;49390;51.380;0.098;2023-02-24T16:27:28;10.20;81.90
63260;DHT22;49390;51.380;0.098;2023-02-24T16:29:57;10.10;82.20
63260;DHT22;49390;51.380;0.098;2023-02-24T16:32:26;10.00;83.30
63260;DHT22;49390;51.380;0.098;2023-02-24T16:34:55;9.90;84.70
63260;DHT22;49390;51.380;0.098;2023-02-24T16:37:27;9.80;84.70
63260;DHT22;49390;51.380;0.098;2023-02-24T16:39:57;9.70;86.30
63260;DHT22;49390;51.380;0.098;2023-02-24T16:42:25;9.70;87.20
63260;DHT22;49390;51.380;0.098;2023-02-24T16:44:54;9.60;88.20
63260;DHT22;49390;51.380;0.098;2023-02-24T16:47:23;9.50;89.60
63260;DHT22;49390;51.380;0.098;2023-02-24T16:49:51;9.50;90.40
63260;DHT22;49390;51.380;0.098;2023-02-24T16:52:24;9.50;91.10
63260;DHT22;49390;51.380;0.098;2023-02-24T16:54:52;9.50;91.60
63260;DHT22;49390;51.380;0.098;2023-02-24T16:57:20;9.50;92.30
63260;DHT22;49390;51.380;0.098;2023-02-24T16:59:52;9.50;92.80
63260;DHT22;49390;51.380;0.098;2023-02-24T17:02:23;9.50;93.20
63260;DHT22;49390;51.380;0.098;2023-02-24T17:04:52;9.50;93.30
63260;DHT22;49390;51.380;0.098;2023-02-24T17:07:20;9.50;92.70
63260;DHT22;49390;51.380;0.098;2023-02-24T17:09:51;9.40;93.20
63260;DHT22;49390;51.380;0.098;2023-02-24T17:12:20;9.30;93.50
63260;DHT22;49390;51.380;0.098;2023-02-24T17:14:49;9.20;93.50
63260;DHT22;49390;51.380;0.098;2023-02-24T17:17:16;9.20;94.10
63260;DHT22;49390;51.380;0.098;2023-02-24T17:19:45;9.10;94.60
63260;DHT22;49390;51.380;0.098;2023-02-24T17:22:12;9.00;95.00
63260;DHT22;49390;51.380;0.098;2023-02-24T17:24:41;9.00;95.80
63260;DHT22;49390;51.380;0.098;2023-02-24T17:27:10;8.90;96.30
63260;DHT22;49390;51.380;0.098;2023-02-24T17:29:38;8.90;96.90
63260;DHT22;49390;51.380;0.098;2023-02-24T17:32:06;8.80;97.40
63260;DHT22;49390;51.380;0.098;2023-02-24T17:34:34;8.80;98.00
63260;DHT22;49390;51.380;0.098;2023-02-24T17:37:02;8.70;98.80
63260;DHT22;49390;51.380;0.098;2023-02-24T17:39:30;8.70;99.60
63260;DHT22;49390;51.380;0.098;2023-02-24T17:41:58;8.60;99.90
63260;DHT22;49390;51.380;0.098;2023-02-24T17:44:29;8.60;99.90
63260;DHT22;49390;51.380;0.098;2023-02-24T17:46:57;8.50;99.90
63260;DHT22;49390;51.380;0.098;2023-02-24T17:49:25;8.50;99.90
63260;DHT22;49390;51.380;0.098;2023-02-24T17:51:52;8.40;99.90
63260;DHT22;49390;51.380;0.098;2023-02-24T17:54:20;8.30;99.90
63260;DHT22;49390;51.380;0.098;2023-02-24T17:56:48;8.20;99.90
63260;DHT22;49390;51.380;0.098;2023-02-24T17:59:16;8.10;99.90
63260;DHT22;49390;51.380;0.098;2023-02-24T18:01:46;8.10;99.90
63260;DHT22;49390;51.380;0.098;2023-02-24T18:04:14;8.10;99.90
63260;DHT22;49390;51.380;0.098;2023-02-24T18:06:42;8.00;99.90
63260;DHT22;49390;51.380;0.098;2023-02-24T18:09:11;8.00;99.90
63260;DHT22;49390;51.380;0.098;2023-02-24T18:11:39;7.90;99.90
63260;DHT22;49390;51.380;0.098;2023-02-24T18:14:07;7.90;99.90
63260;DHT22;49390;51.380;0.098;2023-02-24T18:16:37;7.90;99.90
63260;DHT22;49390;51.380;0.098;2023-02-24T18:19:05;7.90;99.90
63260;DHT22;49390;51.380;0.098;2023-02-24T18:21:33;7.80;99.90
63260;DHT22;49390;51.380;0.098;2023-02-24T18:24:01;7.80;99.90
63260;DHT22;49390;51.380;0.098;2023-02-24T18:26:30;7.80;99.90
63260;DHT22;49390;51.380;0.098;2023-02-24T18:28:59;7.80;99.90
63260;DHT22;49390;51.380;0.098;2023-02-24T18:31:27;7.70;99.90
63260;DHT22;49390;51.380;0.098;2023-02-24T18:33:56;7.80;99.90
63260;DHT22;49390;51.380;0.098;2023-02-24T18:36:24;7.70;99.90
63260;DHT22;49390;51.380;0.098;2023-02-24T18:38:55;7.70;99.90
63260;DHT22;49390;51.380;0.098;2023-02-24T18:41:24;7.70;99.90
63260;DHT22;49390;51.380;0.098;2023-02-24T18:43:54;7.60;99.90
63260;DHT22;49390;51.380;0.098;2023-02-24T18:46:23;7.60;99.90
63260;DHT22;49390;51.380;0.098;2023-02-24T18:48:54;7.50;99.90
63260;DHT22;49390;51.380;0.098;2023-02-24T18:51:23;7.50;99.90
63260;DHT22;49390;51.380;0.098;2023-02-24T18:53:55;7.40;99.90
63260;DHT22;49390;51.380;0.098;2023-02-24T18:56:25;7.40;99.90
63260;DHT22;49390;51.380;0.098;2023-02-24T18:58:55;7.30;99.90